Time;durP1;ratioP1;P1;durP2;ratioP2;P2;SDS_P1;SDS_P2;PMS_P1;PMS_P2;Temp;Humidity;BMP_temperature;BMP_pressure;BME280_temperature;BME280_humidity;BME280_pressure;Samples;Min_cycle;Max_cycle;Signal;HPM_P1;HPM_P2
2021/03/14 00:00:57;;;;;;;14.43;3.57;;;6.00;92.10;;;;;;4395195;32;20258;-66
2021/03/14 00:03:25;;;;;;;13.37;2.80;;;6.00;92.30;;;;;;4396069;32;20214;-65
2021/03/14 00:05:52;;;;;;;15.43;3.00;;;6.10;92.10;;;;;;4395785;32;20223;-65
2021/03/14 00:08:22;;;;;;;13.87;3.53;;;6.10;92.30;;;;;;4395012;32;20171;-65
2021/03/14 00:10:50;;;;;;;16.30;4.30;;;6.10;92.30;;;;;;4392900;32;20580;-67
2021/03/14 00:13:19;;;;;;;14.97;3.10;;;6.10;92.00;;;;;;4399611;32;20195;-64
2021/03/14 00:15:46;;;;;;;12.73;3.50;;;6.10;92.20;;;;;;4399972;32;20163;-64
2021/03/14 00:18:13;;;;;;;17.33;3.17;;;6.10;92.30;;;;;;4395253;32;20145;-66
2021/03/14 00:20:39;;;;;;;14.40;3.40;;;6.10;92.20;;;;;;4394513;32;20265;-66
2021/03/14 00:23:06;;;;;;;11.30;3.00;;;6.10;92.20;;;;;;4393093;32;20202;-64
2021/03/14 00:25:34;;;;;;;18.00;2.93;;;6.20;92.00;;;;;;4395250;32;20223;-64
2021/03/14 00:28:01;;;;;;;18.60;3.33;;;6.10;92.20;;;;;;4392255;32;20248;-65
2021/03/14 00:30:27;;;;;;;18.43;3.10;;;6.10;92.20;;;;;;4395110;32;20194;-65
2021/03/14 00:32:54;;;;;;;15.10;3.57;;;6.10;92.20;;;;;;4396373;32;20168;-65
2021/03/14 00:35:21;;;;;;;13.67;3.17;;;6.10;92.00;;;;;;4396587;32;20235;-65
2021/03/14 00:37:48;;;;;;;21.83;3.57;;;6.10;92.00;;;;;;4397779;32;20156;-65
2021/03/14 00:40:15;;;;;;;9.10;2.40;;;6.20;92.10;;;;;;4395165;32;20194;-65
2021/03/14 00:42:42;;;;;;;13.80;3.50;;;6.20;91.90;;;;;;4394549;32;20249;-65
2021/03/14 00:45:09;;;;;;;11.17;2.67;;;6.20;92.10;;;;;;4396308;32;20594;-64
2021/03/14 00:47:36;;;;;;;14.47;3.20;;;6.20;91.90;;;;;;4396589;32;20194;-65
2021/03/14 00:50:04;;;;;;;14.07;2.87;;;6.20;92.20;;;;;;4394843;32;20163;-65
2021/03/14 00:52:31;;;;;;;13.13;3.73;;;6.20;91.70;;;;;;4394869;32;20235;-65
2021/03/14 00:54:57;;;;;;;19.47;2.90;;;6.20;91.80;;;;;;4381919;32;20238;-65
2021/03/14 00:57:23;;;;;;;12.70;2.47;;;6.20;92.10;;;;;;4395348;32;20320;-65
2021/03/14 00:59:51;;;;;;;13.97;3.13;;;6.20;92.00;;;;;;4397306;32;20230;-65
2021/03/14 01:02:17;;;;;;;18.03;2.50;;;6.20;92.00;;;;;;4397669;32;20237;-65
2021/03/14 01:04:43;;;;;;;18.90;3.20;;;6.20;92.10;;;;;;4396220;32;20257;-64
2021/03/14 01:07:10;;;;;;;15.23;3.33;;;6.20;91.60;;;;;;4390867;32;20160;-65
2021/03/14 01:09:36;;;;;;;14.23;2.53;;;6.20;91.50;;;;;;4396088;32;20269;-65
2021/03/14 01:12:03;;;;;;;15.17;2.77;;;6.20;91.70;;;;;;4394355;32;20156;-64
2021/03/14 01:14:29;;;;;;;19.00;2.93;;;6.20;91.70;;;;;;4393254;32;20168;-64
2021/03/14 01:16:56;;;;;;;15.77;2.90;;;6.30;91.60;;;;;;4395972;32;20214;-64
2021/03/14 01:19:22;;;;;;;9.23;2.83;;;6.30;91.40;;;;;;4395420;32;20147;-64
2021/03/14 01:21:49;;;;;;;12.33;2.80;;;6.20;91.70;;;;;;4397810;32;20502;-65
2021/03/14 01:24:15;;;;;;;13.67;3.43;;;6.10;91.70;;;;;;4395002;32;20221;-65
2021/03/14 01:26:41;;;;;;;15.33;3.87;;;6.10;91.90;;;;;;4400779;32;20581;-64
2021/03/14 01:29:08;;;;;;;9.03;2.70;;;6.10;91.50;;;;;;4399173;32;20222;-66
2021/03/14 01:31:34;;;;;;;21.67;3.57;;;6.20;91.70;;;;;;4392862;32;20240;-64
2021/03/14 01:34:03;;;;;;;12.23;2.57;;;6.20;91.70;;;;;;4393030;32;20299;-64
2021/03/14 01:36:29;;;;;;;14.53;2.80;;;6.20;91.60;;;;;;4396468;32;20315;-64
2021/03/14 01:38:56;;;;;;;12.17;3.03;;;6.20;91.60;;;;;;4392242;32;20156;-65
2021/03/14 01:41:22;;;;;;;13.17;2.80;;;6.20;91.40;;;;;;4393857;32;20222;-64
2021/03/14 01:43:49;;;;;;;12.93;2.43;;;6.30;91.50;;;;;;4396291;32;20156;-63
2021/03/14 01:46:15;;;;;;;14.50;3.13;;;6.30;91.60;;;;;;4397567;32;20160;-65
2021/03/14 01:48:41;;;;;;;21.87;3.63;;;6.20;91.50;;;;;;4395457;32;20632;-65
2021/03/14 01:51:08;;;;;;;17.07;2.80;;;6.30;91.40;;;;;;4392904;32;20213;-64
2021/03/14 01:53:36;;;;;;;12.83;3.03;;;6.20;91.40;;;;;;4392340;32;20294;-65
2021/03/14 01:56:02;;;;;;;19.80;3.43;;;6.20;91.60;;;;;;4395049;32;20219;-64
2021/03/14 01:58:29;;;;;;;13.47;2.83;;;6.10;91.60;;;;;;4394913;32;20224;-67
2021/03/14 02:00:56;;;;;;;15.40;3.03;;;6.10;91.60;;;;;;4394668;32;20180;-65
2021/03/14 02:03:23;;;;;;;15.93;2.97;;;6.10;91.60;;;;;;4396021;32;20227;-66
2021/03/14 02:05:50;;;;;;;18.40;3.53;;;5.90;91.80;;;;;;4398950;32;20214;-65
2021/03/14 02:08:17;;;;;;;18.33;3.13;;;5.90;92.00;;;;;;4400176;32;20181;-65
2021/03/14 02:10:46;;;;;;;15.63;2.67;;;5.80;92.00;;;;;;4394658;32;20159;-65
2021/03/14 02:13:17;;;;;;;15.63;3.40;;;5.80;92.20;;;;;;4397619;32;20277;-64
2021/03/14 02:15:46;;;;;;;15.03;2.87;;;5.90;92.10;;;;;;4395732;32;20235;-64
2021/03/14 02:18:14;;;;;;;11.23;2.73;;;5.90;92.10;;;;;;4397600;32;20206;-64
2021/03/14 02:20:42;;;;;;;16.73;3.50;;;5.90;91.60;;;;;;4397792;32;20242;-65
2021/03/14 02:23:20;;;;;;;15.50;3.23;;;5.90;91.60;;;;;;4396397;32;20222;-64
2021/03/14 02:25:50;;;;;;;15.67;3.00;;;5.80;91.70;;;;;;4395693;32;20227;-64
2021/03/14 02:28:22;;;;;;;11.47;3.07;;;5.70;91.70;;;;;;4397396;32;20281;-64
2021/03/14 02:30:48;;;;;;;11.80;2.70;;;5.70;92.00;;;;;;4394916;32;20259;-65
2021/03/14 02:33:18;;;;;;;10.30;3.00;;;5.60;92.00;;;;;;4396018;32;20281;-65
2021/03/14 02:35:46;;;;;;;20.80;3.63;;;5.70;91.80;;;;;;4396427;32;20611;-64
2021/03/14 02:38:14;;;;;;;12.50;2.57;;;5.60;92.00;;;;;;4396961;32;20175;-65
2021/03/14 02:40:41;;;;;;;22.50;3.67;;;5.60;92.20;;;;;;4398174;32;20171;-64
2021/03/14 02:43:10;;;;;;;14.47;3.13;;;5.50;92.30;;;;;;4398730;32;20262;-64
2021/03/14 02:45:37;;;;;;;17.07;3.33;;;5.40;92.50;;;;;;4392589;32;20171;-65
2021/03/14 02:48:05;;;;;;;14.10;2.80;;;5.40;92.60;;;;;;4395711;32;20475;-64
2021/03/14 02:50:33;;;;;;;9.43;3.27;;;5.40;92.50;;;;;;4395609;32;20219;-65
2021/03/14 02:53:00;;;;;;;14.63;3.10;;;5.40;92.60;;;;;;4400894;32;20286;-64
2021/03/14 02:55:27;;;;;;;14.67;2.80;;;5.40;92.60;;;;;;4395047;32;20619;-64
2021/03/14 02:57:54;;;;;;;11.10;3.10;;;5.40;92.50;;;;;;4399553;32;20178;-65
2021/03/14 03:00:24;;;;;;;15.33;3.60;;;5.50;92.70;;;;;;4398548;32;20204;-65
2021/03/14 03:02:53;;;;;;;17.03;3.27;;;5.50;92.50;;;;;;4396621;32;20222;-64
2021/03/14 03:05:21;;;;;;;14.10;3.43;;;5.40;92.60;;;;;;4399855;32;20179;-65
2021/03/14 03:07:50;;;;;;;19.90;3.03;;;5.40;92.60;;;;;;4398110;32;20229;-65
2021/03/14 03:10:17;;;;;;;18.77;2.87;;;5.40;92.80;;;;;;4400865;32;20240;-65
2021/03/14 03:12:46;;;;;;;24.13;4.17;;;5.50;92.70;;;;;;4399667;32;20183;-65
2021/03/14 03:15:14;;;;;;;12.90;3.27;;;5.50;92.70;;;;;;4397484;32;20235;-65
2021/03/14 03:17:43;;;;;;;16.33;2.97;;;5.50;92.70;;;;;;4397905;32;20666;-65
2021/03/14 03:20:12;;;;;;;16.43;4.17;;;5.40;92.70;;;;;;4394302;32;20269;-64
2021/03/14 03:22:38;;;;;;;18.20;3.27;;;5.50;92.70;;;;;;4398093;32;20227;-65
2021/03/14 03:25:06;;;;;;;16.53;2.93;;;5.50;92.90;;;;;;4394282;32;20600;-64
2021/03/14 03:27:34;;;;;;;18.17;3.77;;;5.40;92.90;;;;;;4397427;32;20290;-64
2021/03/14 03:30:00;;;;;;;14.80;3.17;;;5.40;93.00;;;;;;4397313;32;20192;-64
2021/03/14 03:32:27;;;;;;;13.70;3.03;;;5.30;93.10;;;;;;4395983;32;20572;-64
2021/03/14 03:34:53;;;;;;;20.50;3.60;;;5.30;93.10;;;;;;4395125;32;20227;-64
2021/03/14 03:37:21;;;;;;;17.90;2.57;;;5.30;93.20;;;;;;4398637;32;20196;-64
2021/03/14 03:39:47;;;;;;;12.50;3.30;;;5.30;93.40;;;;;;4396258;32;20218;-65
2021/03/14 03:42:18;;;;;;;15.50;2.43;;;5.30;93.40;;;;;;4396366;32;20175;-64
2021/03/14 03:44:44;;;;;;;19.37;3.40;;;5.30;93.40;;;;;;4396433;32;20515;-65
2021/03/14 03:47:13;;;;;;;14.67;3.23;;;5.40;93.40;;;;;;4395239;32;20384;-65
2021/03/14 03:49:41;;;;;;;19.33;3.97;;;5.40;93.40;;;;;;4398020;32;20222;-65
2021/03/14 03:52:08;;;;;;;18.80;3.17;;;5.40;93.20;;;;;;4396020;32;20207;-65
2021/03/14 03:54:36;;;;;;;16.37;3.03;;;5.50;93.20;;;;;;4396733;32;20238;-65
2021/03/14 03:57:04;;;;;;;11.73;3.27;;;5.60;93.20;;;;;;4395549;32;20218;-65
2021/03/14 03:59:32;;;;;;;15.00;3.40;;;5.60;93.10;;;;;;4396680;32;20660;-65
2021/03/14 04:02:00;;;;;;;13.87;3.20;;;5.70;92.90;;;;;;4396578;32;20148;-66
2021/03/14 04:04:28;;;;;;;12.40;3.43;;;5.70;92.90;;;;;;4397202;32;20286;-65
2021/03/14 04:06:56;;;;;;;17.13;2.97;;;5.80;92.80;;;;;;4394976;32;20226;-65
2021/03/14 04:09:24;;;;;;;22.07;3.90;;;5.90;92.80;;;;;;4397269;32;20182;-66
2021/03/14 04:11:53;;;;;;;11.03;2.80;;;5.90;92.80;;;;;;4394812;32;20159;-65
2021/03/14 04:14:20;;;;;;;13.37;3.00;;;5.90;92.60;;;;;;4396433;32;20174;-65
2021/03/14 04:16:47;;;;;;;15.20;3.70;;;5.90;92.60;;;;;;4394906;32;20212;-65
2021/03/14 04:19:16;;;;;;;9.87;2.33;;;5.90;92.60;;;;;;4394646;32;20174;-65
2021/03/14 04:21:42;;;;;;;20.33;3.60;;;5.90;92.70;;;;;;4398335;32;20842;-65
2021/03/14 04:24:11;;;;;;;17.60;3.00;;;5.90;92.80;;;;;;4394318;32;20227;-65
2021/03/14 04:26:41;;;;;;;13.13;2.30;;;5.90;92.80;;;;;;4391448;32;20167;-65
2021/03/14 04:29:09;;;;;;;9.47;2.93;;;5.90;92.90;;;;;;4397012;32;20228;-65
2021/03/14 04:31:37;;;;;;;11.97;2.57;;;5.80;93.00;;;;;;4395719;32;20152;-65
2021/03/14 04:34:03;;;;;;;18.07;3.33;;;5.90;93.20;;;;;;4394448;32;20178;-65
2021/03/14 04:36:30;;;;;;;16.43;2.40;;;5.80;93.50;;;;;;4395382;32;20231;-65
2021/03/14 04:38:57;;;;;;;14.10;2.53;;;5.60;94.30;;;;;;4394508;32;20230;-65
2021/03/14 04:41:24;;;;;;;5.77;2.43;;;5.40;95.00;;;;;;4396140;32;20154;-65
2021/03/14 04:43:51;;;;;;;10.87;2.93;;;5.30;95.70;;;;;;4396635;32;20484;-65
2021/03/14 04:46:19;;;;;;;7.00;2.10;;;5.20;96.00;;;;;;4394737;32;20163;-65
2021/03/14 04:48:45;;;;;;;12.63;2.90;;;5.10;96.20;;;;;;4396129;32;20152;-65
2021/03/14 04:51:12;;;;;;;11.03;2.77;;;5.00;96.50;;;;;;4396274;32;20718;-65
2021/03/14 04:53:40;;;;;;;10.33;2.97;;;5.00;96.90;;;;;;4398402;32;20241;-65
2021/03/14 04:56:07;;;;;;;8.80;2.90;;;4.90;97.00;;;;;;4397998;32;20268;-64
2021/03/14 04:58:34;;;;;;;10.07;2.30;;;4.90;97.20;;;;;;4402679;32;20280;-64
2021/03/14 05:01:02;;;;;;;8.93;2.67;;;4.80;97.40;;;;;;4398521;32;20270;-65
2021/03/14 05:03:31;;;;;;;8.23;2.53;;;4.80;97.60;;;;;;4394505;32;20657;-65
2021/03/14 05:05:59;;;;;;;10.30;2.60;;;4.80;97.70;;;;;;4396267;32;20649;-65
2021/03/14 05:08:27;;;;;;;5.43;2.10;;;4.80;97.80;;;;;;4396315;32;20330;-65
2021/03/14 05:10:54;;;;;;;7.57;2.50;;;4.90;97.80;;;;;;4394265;32;20175;-65
2021/03/14 05:13:20;;;;;;;6.00;3.30;;;4.90;97.80;;;;;;4397959;32;20242;-65
2021/03/14 05:15:51;;;;;;;11.80;2.87;;;4.90;97.90;;;;;;4395757;32;20234;-65
2021/03/14 05:18:17;;;;;;;13.70;3.33;;;4.90;98.00;;;;;;4397175;32;20192;-65
2021/03/14 05:20:46;;;;;;;9.20;3.10;;;4.90;98.10;;;;;;4399890;32;20190;-65
2021/03/14 05:23:12;;;;;;;12.33;3.30;;;4.90;98.20;;;;;;4396740;32;20167;-65
2021/03/14 05:25:40;;;;;;;10.03;3.60;;;4.90;98.10;;;;;;4399192;32;20201;-65
2021/03/14 05:28:06;;;;;;;10.27;3.13;;;4.90;98.20;;;;;;4393335;32;20231;-65
2021/03/14 05:30:34;;;;;;;13.57;3.47;;;4.90;98.30;;;;;;4394247;32;20400;-65
2021/03/14 05:33:02;;;;;;;8.17;3.30;;;4.90;98.20;;;;;;4397290;32;20191;-65
2021/03/14 05:35:29;;;;;;;12.93;4.20;;;4.90;98.20;;;;;;4397063;32;20305;-65
2021/03/14 05:37:58;;;;;;;14.77;4.60;;;4.90;98.20;;;;;;4398155;32;20156;-65
2021/03/14 05:40:25;;;;;;;8.70;3.70;;;4.90;98.20;;;;;;4395813;32;20168;-65
2021/03/14 05:42:53;;;;;;;7.63;3.80;;;4.90;98.20;;;;;;4398099;32;20698;-65
2021/03/14 05:45:20;;;;;;;9.23;4.13;;;4.90;98.20;;;;;;4398946;32;20259;-64
2021/03/14 05:47:48;;;;;;;9.93;4.17;;;4.80;98.20;;;;;;4397261;32;20156;-64
2021/03/14 05:50:17;;;;;;;10.00;4.03;;;4.90;98.30;;;;;;4398602;32;20176;-64
2021/03/14 05:52:44;;;;;;;9.70;4.10;;;5.00;98.30;;;;;;4397933;32;20215;-64
2021/03/14 05:55:16;;;;;;;11.57;4.00;;;5.00;98.20;;;;;;4398356;32;20235;-64
2021/03/14 05:57:44;;;;;;;13.83;3.83;;;5.00;98.30;;;;;;4398377;32;20532;-64
2021/03/14 06:00:14;;;;;;;12.80;3.97;;;5.10;98.30;;;;;;4393894;32;20195;-63
2021/03/14 06:02:42;;;;;;;13.30;4.33;;;5.10;98.30;;;;;;4397239;32;20175;-64
2021/03/14 06:05:09;;;;;;;12.63;4.23;;;5.10;98.40;;;;;;4397948;32;20258;-64
2021/03/14 06:07:36;;;;;;;10.43;3.90;;;5.10;98.40;;;;;;4398994;32;20297;-64
2021/03/14 06:10:03;;;;;;;11.73;3.97;;;5.20;98.40;;;;;;4399141;32;21608;-65
2021/03/14 06:12:32;;;;;;;9.67;3.83;;;5.10;98.40;;;;;;4397336;32;20231;-65
2021/03/14 06:14:59;;;;;;;13.57;3.53;;;5.20;98.40;;;;;;4398315;32;20144;-64
2021/03/14 06:17:27;;;;;;;17.80;4.10;;;5.20;98.30;;;;;;4400330;32;20659;-64
2021/03/14 06:19:53;;;;;;;11.00;3.87;;;5.20;98.30;;;;;;4399445;32;20332;-65
2021/03/14 06:22:24;;;;;;;17.43;4.50;;;5.20;98.50;;;;;;4397812;32;20587;-65
2021/03/14 06:24:51;;;;;;;16.63;4.17;;;5.30;98.50;;;;;;4399288;32;20222;-65
2021/03/14 06:27:33;;;;;;;17.27;3.97;;;5.30;98.40;;;;;;4395104;32;20274;-65
2021/03/14 06:30:00;;;;;;;17.10;4.10;;;5.30;98.30;;;;;;4396148;32;20174;-65
2021/03/14 06:32:26;;;;;;;12.00;4.67;;;5.40;98.20;;;;;;4398168;32;20202;-65
2021/03/14 06:35:08;;;;;;;13.37;4.33;;;5.40;98.20;;;;;;4397273;32;20222;-62
2021/03/14 06:37:34;;;;;;;16.67;3.70;;;5.50;98.10;;;;;;4397990;32;20215;-64
2021/03/14 06:40:08;;;;;;;16.47;3.30;;;5.40;98.10;;;;;;4395846;32;21048;-65
2021/03/14 06:42:37;;;;;;;14.50;3.63;;;5.60;98.10;;;;;;4395851;32;20863;-66
2021/03/14 06:45:07;;;;;;;22.13;4.57;;;5.60;98.00;;;;;;4398050;32;20286;-64
2021/03/14 06:47:38;;;;;;;16.20;4.37;;;5.50;98.10;;;;;;4398430;32;20922;-68
2021/03/14 06:50:06;;;;;;;15.27;4.23;;;5.60;98.10;;;;;;4394856;32;20218;-67
2021/03/14 06:52:32;;;;;;;18.27;4.10;;;5.60;98.10;;;;;;4397390;32;20179;-65
2021/03/14 06:54:58;;;;;;;18.97;4.90;;;5.70;97.80;;;;;;4396725;32;20222;-65
2021/03/14 06:57:27;;;;;;;15.73;4.30;;;5.80;97.80;;;;;;4397361;32;20145;-64
2021/03/14 06:59:58;;;;;;;14.80;4.17;;;5.90;98.10;;;;;;4396746;32;20218;-63
2021/03/14 07:02:26;;;;;;;17.33;3.67;;;6.00;97.70;;;;;;4401092;32;20151;-65
2021/03/14 07:04:54;;;;;;;15.13;4.43;;;6.20;97.40;;;;;;4403474;32;20170;-65
2021/03/14 07:07:26;;;;;;;9.83;3.83;;;6.30;97.10;;;;;;4395331;32;20224;-66
2021/03/14 07:09:56;;;;;;;12.77;4.57;;;6.40;97.00;;;;;;4395956;32;20148;-67
2021/03/14 07:12:25;;;;;;;13.23;4.60;;;6.50;96.60;;;;;;4397470;32;20287;-65
2021/03/14 07:14:52;;;;;;;21.37;5.57;;;6.60;96.50;;;;;;4396824;32;20612;-68
2021/03/14 07:17:34;;;;;;;17.63;4.70;;;6.60;96.20;;;;;;4396653;32;20188;-63
2021/03/14 07:20:05;;;;;;;18.13;4.63;;;6.70;96.00;;;;;;4395757;32;20578;-64
2021/03/14 07:22:32;;;;;;;18.37;5.20;;;6.80;96.00;;;;;;4396367;32;20484;-65
2021/03/14 07:24:58;;;;;;;19.77;5.77;;;6.80;95.60;;;;;;4394531;32;20245;-65
2021/03/14 07:27:26;;;;;;;20.97;5.30;;;6.70;95.50;;;;;;4394639;32;20239;-64
2021/03/14 07:29:54;;;;;;;18.77;5.60;;;6.60;95.80;;;;;;4396487;32;20227;-64
2021/03/14 07:32:21;;;;;;;10.67;4.77;;;6.80;96.10;;;;;;4396262;32;20441;-65
2021/03/14 07:34:49;;;;;;;24.07;6.60;;;7.00;95.20;;;;;;4392981;32;20729;-65
2021/03/14 07:37:16;;;;;;;11.77;5.57;;;7.40;94.80;;;;;;4396719;32;20215;-65
2021/03/14 07:39:45;;;;;;;12.80;4.77;;;7.60;94.20;;;;;;4396719;32;20149;-66
2021/03/14 07:42:12;;;;;;;15.43;4.93;;;7.80;94.20;;;;;;4397679;32;20496;-66
2021/03/14 07:44:39;;;;;;;18.53;6.10;;;7.80;93.70;;;;;;4394876;32;20175;-64
2021/03/14 07:47:05;;;;;;;10.27;4.97;;;7.60;93.70;;;;;;4398610;32;21858;-67
2021/03/14 07:49:33;;;;;;;16.50;5.27;;;7.70;93.90;;;;;;4397777;32;20209;-63
2021/03/14 07:52:04;;;;;;;14.77;5.60;;;7.80;94.00;;;;;;4396888;32;20580;-64
2021/03/14 07:54:37;;;;;;;19.90;5.87;;;7.90;94.00;;;;;;4395864;32;20154;-64
2021/03/14 07:57:04;;;;;;;17.10;5.80;;;8.20;92.90;;;;;;4395030;32;20174;-69
2021/03/14 07:59:31;;;;;;;18.33;5.47;;;8.10;93.00;;;;;;4394115;32;20242;-65
2021/03/14 08:02:30;;;;;;;15.87;5.83;;;7.80;92.90;;;;;;4394213;32;20144;-65
2021/03/14 08:05:01;;;;;;;18.90;6.10;;;7.70;93.50;;;;;;4396686;32;20485;-65
2021/03/14 08:07:42;;;;;;;17.67;6.27;;;7.70;93.80;;;;;;4395364;32;20204;-66
2021/03/14 08:10:10;;;;;;;16.50;6.37;;;7.60;93.90;;;;;;4398294;32;20176;-65
2021/03/14 08:12:38;;;;;;;14.63;5.47;;;7.60;93.80;;;;;;4396459;32;20687;-65
2021/03/14 08:15:22;;;;;;;15.27;4.90;;;7.50;93.90;;;;;;4398714;32;20242;-68
2021/03/14 08:17:52;;;;;;;14.50;6.67;;;7.50;94.20;;;;;;4395486;32;20594;-65
2021/03/14 08:20:35;;;;;;;12.30;5.40;;;7.50;93.90;;;;;;4394652;32;21353;-64
2021/03/14 08:23:05;;;;;;;15.47;5.47;;;7.70;94.10;;;;;;4394457;32;20660;-67
2021/03/14 08:25:37;;;;;;;15.63;6.10;;;7.80;93.90;;;;;;4395696;32;20182;-67
2021/03/14 08:28:36;;;;;;;18.97;6.37;;;8.00;93.80;;;;;;4393141;32;20223;-63
2021/03/14 08:31:04;;;;;;;24.20;5.80;;;7.90;93.40;;;;;;4393211;32;20215;-64
2021/03/14 08:33:33;;;;;;;15.97;6.00;;;7.90;93.60;;;;;;4395218;32;20253;-66
2021/03/14 08:36:01;;;;;;;17.07;6.23;;;7.80;93.60;;;;;;4394363;32;20187;-64
2021/03/14 08:38:35;;;;;;;18.47;6.20;;;7.80;93.80;;;;;;4396891;32;20157;-66
2021/03/14 08:41:24;;;;;;;14.87;5.13;;;8.00;93.90;;;;;;4395451;32;20211;-63
2021/03/14 08:43:53;;;;;;;16.77;5.53;;;8.10;93.30;;;;;;4333814;32;1569659;-65
2021/03/14 08:46:19;;;;;;;19.80;7.10;;;8.20;93.00;;;;;;4382625;32;20223;-64
2021/03/14 08:48:46;;;;;;;23.10;5.93;;;8.30;92.80;;;;;;4383022;32;20175;-63
2021/03/14 08:51:13;;;;;;;12.87;4.90;;;8.50;92.10;;;;;;4381454;32;20247;-69
2021/03/14 08:53:40;;;;;;;11.60;4.67;;;8.70;92.40;;;;;;4384160;32;20297;-61
2021/03/14 08:56:09;;;;;;;16.23;5.23;;;9.00;91.80;;;;;;4381863;32;20159;-63
2021/03/14 08:58:36;;;;;;;13.77;4.90;;;9.00;90.80;;;;;;4381506;32;20227;-63
2021/03/14 09:01:08;;;;;;;18.17;5.20;;;8.80;91.30;;;;;;4383507;32;20160;-67
2021/03/14 09:03:41;;;;;;;13.60;5.17;;;8.60;91.30;;;;;;4384347;32;20197;-64
2021/03/14 09:06:26;;;;;;;17.30;4.87;;;8.60;91.70;;;;;;4379967;32;20187;-67
2021/03/14 09:08:59;;;;;;;10.90;5.37;;;8.60;91.80;;;;;;4382962;32;20160;-63
2021/03/14 09:11:39;;;;;;;16.27;5.13;;;8.80;91.70;;;;;;4382587;32;20171;-63
2021/03/14 09:14:34;;;;;;;12.87;4.77;;;8.80;91.40;;;;;;4381314;32;20174;-65
2021/03/14 09:17:05;;;;;;;11.67;4.63;;;9.20;91.10;;;;;;4380975;32;20612;-64
2021/03/14 09:19:34;;;;;;;13.10;4.43;;;9.60;90.40;;;;;;4385116;32;20168;-63
2021/03/14 09:22:02;;;;;;;18.47;4.97;;;9.90;89.80;;;;;;4382164;32;20220;-63
2021/03/14 09:24:33;;;;;;;10.30;3.93;;;10.10;88.10;;;;;;4383013;32;20659;-63
2021/03/14 09:27:02;;;;;;;18.70;3.73;;;10.10;88.60;;;;;;4382988;32;20648;-63
2021/03/14 09:29:56;;;;;;;12.10;3.63;;;9.70;88.60;;;;;;4382125;32;20658;-64
2021/03/14 09:32:32;;;;;;;12.77;3.87;;;9.10;90.20;;;;;;4381964;32;20228;-63
2021/03/14 09:35:22;;;;;;;9.23;3.63;;;9.00;91.20;;;;;;4379573;32;20207;-64
2021/03/14 09:37:51;;;;;;;12.13;3.30;;;8.80;91.60;;;;;;4379235;32;20245;-63
2021/03/14 09:40:31;;;;;;;11.57;3.70;;;8.80;91.70;;;;;;4377914;32;20295;-63
2021/03/14 09:43:09;;;;;;;10.63;2.97;;;9.10;91.40;;;;;;4381015;32;20905;-66
2021/03/14 09:45:36;;;;;;;13.13;3.43;;;9.30;91.00;;;;;;4380857;32;21086;-67
2021/03/14 09:48:07;;;;;;;9.13;2.63;;;9.20;90.10;;;;;;4381078;32;20231;-65
2021/03/14 09:50:37;;;;;;;4.13;1.77;;;9.30;89.40;;;;;;4381714;32;20601;-67
2021/03/14 09:53:05;;;;;;;7.00;1.03;;;9.10;88.70;;;;;;4381636;32;20290;-64
2021/03/14 09:55:33;;;;;;;4.30;0.97;;;8.30;90.90;;;;;;4379807;32;20223;-69
2021/03/14 09:58:00;;;;;;;7.83;1.33;;;7.50;91.70;;;;;;4381276;32;20171;-66
2021/03/14 10:00:29;;;;;;;6.27;1.63;;;7.30;92.90;;;;;;4377963;32;20220;-64
2021/03/14 10:03:00;;;;;;;5.13;1.47;;;7.50;94.20;;;;;;4382554;32;20224;-66
2021/03/14 10:05:26;;;;;;;3.93;1.60;;;7.90;93.40;;;;;;4381463;32;20224;-68
2021/03/14 10:07:54;;;;;;;4.90;1.40;;;8.10;93.40;;;;;;4380098;32;20307;-65
2021/03/14 10:10:21;;;;;;;9.50;1.80;;;8.10;92.30;;;;;;4380016;32;20279;-65
2021/03/14 10:12:49;;;;;;;11.07;1.80;;;8.50;92.20;;;;;;4383410;32;20281;-63
2021/03/14 10:15:18;;;;;;;5.03;1.40;;;8.90;91.90;;;;;;4380932;32;20691;-65
2021/03/14 10:17:46;;;;;;;6.40;1.97;;;9.00;91.50;;;;;;4378816;32;20223;-66
2021/03/14 10:20:13;;;;;;;8.10;2.10;;;9.30;91.40;;;;;;4378318;32;20211;-68
2021/03/14 10:22:39;;;;;;;9.80;2.27;;;9.60;90.80;;;;;;4380882;32;20266;-65
2021/03/14 10:25:22;;;;;;;10.53;2.70;;;9.60;90.90;;;;;;4383548;32;20288;-67
2021/03/14 10:27:50;;;;;;;10.30;2.93;;;9.60;90.50;;;;;;4382832;32;20192;-67
2021/03/14 10:30:20;;;;;;;12.10;3.30;;;9.80;90.40;;;;;;4384131;32;20235;-67
2021/03/14 10:32:48;;;;;;;12.03;2.70;;;10.00;90.50;;;;;;4384938;32;20176;-70
2021/03/14 10:35:15;;;;;;;7.23;3.13;;;10.20;89.80;;;;;;4383008;32;20173;-66
2021/03/14 10:37:42;;;;;;;11.53;4.07;;;10.30;89.00;;;;;;4383420;32;20192;-65
2021/03/14 10:40:11;;;;;;;8.53;3.40;;;10.00;88.00;;;;;;4384519;32;20343;-65
2021/03/14 10:42:39;;;;;;;12.17;3.47;;;10.00;89.00;;;;;;4383552;32;20269;-66
2021/03/14 10:45:13;;;;;;;17.20;4.20;;;9.80;89.90;;;;;;4382904;32;20155;-64
2021/03/14 10:47:39;;;;;;;14.03;3.80;;;9.60;88.80;;;;;;4384213;32;20308;-69
2021/03/14 10:50:09;;;;;;;9.63;3.10;;;9.50;90.20;;;;;;4382401;32;20276;-68
2021/03/14 10:52:35;;;;;;;15.67;3.73;;;9.20;88.50;;;;;;4380721;32;20219;-66
2021/03/14 10:55:01;;;;;;;13.70;3.53;;;9.10;90.10;;;;;;4381987;32;20160;-63
2021/03/14 10:57:28;;;;;;;14.90;3.87;;;9.20;89.70;;;;;;4386610;32;20199;-68
2021/03/14 11:00:05;;;;;;;6.40;2.50;;;9.10;89.60;;;;;;4380855;32;20289;-66
2021/03/14 11:02:42;;;;;;;14.13;3.10;;;9.20;89.50;;;;;;4380643;32;20168;-66
2021/03/14 11:05:10;;;;;;;8.83;2.43;;;9.30;90.00;;;;;;4382229;32;21380;-68
2021/03/14 11:07:37;;;;;;;10.97;3.47;;;9.70;87.20;;;;;;4383006;32;20211;-65
2021/03/14 11:10:12;;;;;;;14.07;2.87;;;9.70;88.00;;;;;;4383587;32;20195;-65
2021/03/14 11:12:40;;;;;;;8.10;2.37;;;9.50;85.50;;;;;;4384044;32;20294;-65
2021/03/14 11:15:08;;;;;;;12.00;2.87;;;9.70;86.60;;;;;;4379769;32;20188;-65
2021/03/14 11:17:36;;;;;;;9.20;2.57;;;9.90;86.40;;;;;;4383426;32;21036;-65
2021/03/14 11:20:05;;;;;;;12.20;2.83;;;10.00;87.00;;;;;;4383287;32;20554;-65
2021/03/14 11:22:31;;;;;;;12.87;3.10;;;10.00;85.90;;;;;;4384751;32;20155;-65
2021/03/14 11:24:57;;;;;;;14.10;2.83;;;9.80;87.00;;;;;;4386991;32;20157;-65
2021/03/14 11:27:24;;;;;;;11.73;2.97;;;9.80;86.60;;;;;;4387160;32;20622;-64
2021/03/14 11:29:50;;;;;;;9.00;3.17;;;10.00;86.50;;;;;;4384988;32;20279;-63
2021/03/14 11:32:16;;;;;;;11.60;2.57;;;10.10;85.10;;;;;;4383276;32;20182;-64
2021/03/14 11:34:46;;;;;;;12.43;3.17;;;10.20;85.20;;;;;;4381695;32;20251;-66
2021/03/14 11:37:13;;;;;;;14.73;3.20;;;9.80;83.40;;;;;;4385072;32;20225;-64
2021/03/14 11:39:40;;;;;;;13.47;3.03;;;9.30;85.30;;;;;;4384355;32;20369;-64
2021/03/14 11:42:08;;;;;;;7.90;3.40;;;8.80;88.90;;;;;;4383571;32;20253;-65
2021/03/14 11:44:34;;;;;;;15.70;3.37;;;8.90;89.40;;;;;;4383797;32;20247;-65
2021/03/14 11:47:01;;;;;;;9.13;3.00;;;9.00;89.00;;;;;;4383362;32;20211;-65
2021/03/14 11:49:27;;;;;;;11.67;2.83;;;8.90;88.30;;;;;;4384691;32;20228;-65
2021/03/14 11:51:54;;;;;;;10.03;3.27;;;8.90;88.20;;;;;;4383959;32;20597;-65
2021/03/14 11:54:20;;;;;;;8.67;2.80;;;9.00;86.90;;;;;;4385322;32;20220;-65
2021/03/14 11:56:48;;;;;;;12.00;4.03;;;9.30;87.00;;;;;;4386680;32;20231;-65
2021/03/14 11:59:15;;;;;;;10.60;3.10;;;9.20;85.00;;;;;;4383911;32;20203;-65
2021/03/14 12:01:41;;;;;;;14.43;3.43;;;9.40;86.60;;;;;;4384364;32;20256;-64
2021/03/14 12:04:08;;;;;;;9.53;3.43;;;9.70;83.80;;;;;;4381727;32;20211;-63
2021/03/14 12:06:35;;;;;;;9.07;2.50;;;10.10;83.20;;;;;;4383240;32;20201;-64
2021/03/14 12:09:04;;;;;;;7.90;2.37;;;10.20;83.40;;;;;;4384055;32;20224;-64
2021/03/14 12:11:30;;;;;;;7.30;2.80;;;10.50;83.10;;;;;;4380680;32;20222;-65
2021/03/14 12:13:57;;;;;;;10.00;2.97;;;10.50;83.30;;;;;;4382971;32;20688;-65
2021/03/14 12:16:25;;;;;;;13.10;2.90;;;10.50;82.70;;;;;;4383980;32;20168;-66
2021/03/14 12:18:52;;;;;;;11.23;3.27;;;10.40;82.80;;;;;;4380571;32;20221;-66
2021/03/14 12:21:19;;;;;;;9.90;2.80;;;9.90;83.60;;;;;;4382301;32;20192;-64
2021/03/14 12:23:45;;;;;;;8.97;2.80;;;9.60;84.20;;;;;;4384120;32;20209;-65
2021/03/14 12:26:12;;;;;;;13.10;4.03;;;9.50;87.20;;;;;;4383493;32;20212;-64
2021/03/14 12:28:39;;;;;;;12.90;2.87;;;9.60;87.50;;;;;;4383140;32;20236;-65
2021/03/14 12:31:05;;;;;;;11.10;3.57;;;9.70;85.50;;;;;;4379083;32;20547;-64
2021/03/14 12:33:32;;;;;;;12.77;2.63;;;9.60;85.90;;;;;;4381088;32;20461;-64
2021/03/14 12:35:59;;;;;;;20.47;3.97;;;9.60;85.80;;;;;;4381537;32;20369;-65
2021/03/14 12:38:25;;;;;;;12.60;3.27;;;9.70;86.90;;;;;;4382212;32;20220;-65
2021/03/14 12:40:53;;;;;;;14.23;2.73;;;9.70;86.00;;;;;;4381432;32;20219;-65
2021/03/14 12:43:21;;;;;;;9.43;2.60;;;9.80;83.80;;;;;;4380984;32;20211;-65
2021/03/14 12:45:49;;;;;;;6.70;2.00;;;10.00;82.40;;;;;;4384841;32;20676;-65
2021/03/14 12:48:16;;;;;;;11.70;2.53;;;10.20;78.90;;;;;;4379364;32;20196;-65
2021/03/14 12:50:42;;;;;;;12.93;2.47;;;10.20;78.20;;;;;;4380929;32;20269;-65
2021/03/14 12:53:09;;;;;;;7.47;2.10;;;10.40;78.60;;;;;;4381537;32;20216;-65
2021/03/14 12:55:35;;;;;;;13.00;2.73;;;10.10;77.10;;;;;;4382922;32;20270;-65